createdAt,value
2018-07-31T00:02:00.415Z,8.83
2018-07-31T00:04:30.152Z,8.73
2018-07-31T00:06:59.603Z,8.85
2018-07-31T00:09:29.001Z,9.43
2018-07-31T00:11:59.631Z,9.55
2018-07-31T00:14:30.285Z,8.43
2018-07-31T00:16:59.596Z,8.40
2018-07-31T00:19:28.605Z,8.93
2018-07-31T00:21:57.730Z,9.15
2018-07-31T00:24:26.908Z,9.65
2018-07-31T00:26:56.171Z,9.05
2018-07-31T00:29:25.986Z,9.63
2018-07-31T00:31:55.118Z,9.23
2018-07-31T00:34:24.175Z,9.05
2018-07-31T00:36:53.509Z,8.60
2018-07-31T00:39:22.647Z,9.48
2018-07-31T00:41:54.772Z,9.58
2018-07-31T00:44:27.598Z,9.78
2018-07-31T00:46:57.832Z,9.65
2018-07-31T00:49:27.237Z,9.53
2018-07-31T00:51:56.242Z,9.63
2018-07-31T00:54:25.262Z,9.68
2018-07-31T00:56:54.128Z,9.63
2018-07-31T00:59:23.084Z,8.60
2018-07-31T01:01:52.627Z,9.50
2018-07-31T01:04:22.159Z,9.73
2018-07-31T01:06:52.279Z,10.43
2018-07-31T01:09:21.826Z,9.88
2018-07-31T01:11:52.865Z,10.50
2018-07-31T01:14:24.241Z,10.25
2018-07-31T01:16:54.008Z,9.00
2018-07-31T01:19:23.237Z,9.70
2018-07-31T01:21:52.900Z,10.15
2018-07-31T01:24:23.010Z,9.45
2018-07-31T01:26:53.628Z,9.68
2018-07-31T01:29:35.377Z,9.83
2018-07-31T01:32:05.117Z,9.13
2018-07-31T01:34:34.598Z,9.45
2018-07-31T01:37:06.122Z,10.00
2018-07-31T01:39:35.469Z,9.10
2018-07-31T01:42:04.619Z,9.23
2018-07-31T01:44:33.846Z,9.58
2018-07-31T01:47:02.976Z,10.58
2018-07-31T01:49:32.188Z,9.53
2018-07-31T01:52:02.103Z,9.65
2018-07-31T01:54:31.863Z,10.15
2018-07-31T01:57:01.304Z,10.40
2018-07-31T01:59:30.976Z,10.15
2018-07-31T02:02:01.438Z,9.73
2018-07-31T02:04:32.039Z,9.95
2018-07-31T02:07:02.554Z,10.53
2018-07-31T02:09:33.655Z,9.88
2018-07-31T02:12:03.500Z,11.05
2018-07-31T02:14:32.867Z,10.32
2018-07-31T02:17:02.157Z,9.40
2018-07-31T02:19:31.397Z,10.13
2018-07-31T02:22:01.803Z,11.15
2018-07-31T02:24:31.967Z,11.12
2018-07-31T02:27:01.149Z,11.08
2018-07-31T02:29:38.111Z,11.48
2018-07-31T02:32:16.561Z,11.10
2018-07-31T02:34:51.420Z,10.72
2018-07-31T02:37:22.610Z,10.40
2018-07-31T02:39:53.620Z,10.63
2018-07-31T02:42:25.333Z,11.78
2018-07-31T02:44:55.380Z,10.68
2018-07-31T02:47:25.251Z,11.20
2018-07-31T02:49:55.096Z,10.10
2018-07-31T02:52:25.638Z,11.83
2018-07-31T02:54:57.104Z,11.70
2018-07-31T02:57:30.082Z,11.25
2018-07-31T03:00:03.179Z,10.78
2018-07-31T03:02:35.506Z,10.90
2018-07-31T03:05:07.866Z,11.63
2018-07-31T03:07:38.370Z,11.88
2018-07-31T03:10:12.114Z,11.00
2018-07-31T03:12:42.941Z,12.37
2018-07-31T03:15:15.512Z,10.90
2018-07-31T03:17:47.105Z,10.65
2018-07-31T03:20:23.241Z,11.28
2018-07-31T03:22:56.286Z,11.50
2018-07-31T03:25:27.107Z,12.05
2018-07-31T03:27:58.052Z,10.93
2018-07-31T03:30:29.449Z,11.60
2018-07-31T03:33:05.608Z,10.43
2018-07-31T03:35:40.653Z,11.55
2018-07-31T03:38:13.726Z,10.58
2018-07-31T03:40:44.669Z,10.85
2018-07-31T03:43:19.661Z,10.68
2018-07-31T03:45:51.429Z,10.65
2018-07-31T03:48:22.614Z,11.50
2018-07-31T03:50:58.592Z,12.07
2018-07-31T03:53:31.165Z,10.70
2018-07-31T03:56:01.595Z,12.23
2018-07-31T03:58:32.010Z,11.50
2018-07-31T04:01:02.568Z,11.48
2018-07-31T04:03:32.607Z,11.75
2018-07-31T04:06:02.642Z,11.70
2018-07-31T04:08:32.735Z,11.20
2018-07-31T04:11:02.135Z,10.78
2018-07-31T04:13:31.503Z,11.25
2018-07-31T04:16:00.975Z,12.15
2018-07-31T04:18:30.454Z,11.05
2018-07-31T04:21:00.045Z,11.55
2018-07-31T04:23:33.496Z,12.23
2018-07-31T04:26:03.169Z,11.15
2018-07-31T04:28:33.403Z,11.15
2018-07-31T04:31:03.250Z,10.72
2018-07-31T04:33:32.721Z,11.73
2018-07-31T04:36:01.786Z,11.00
2018-07-31T04:38:30.810Z,11.43
2018-07-31T04:40:59.877Z,11.15
2018-07-31T04:43:28.865Z,10.75
2018-07-31T04:45:58.258Z,10.75
2018-07-31T04:48:28.298Z,12.33
2018-07-31T04:50:57.624Z,11.93
2018-07-31T04:53:27.266Z,10.38
2018-07-31T04:55:56.014Z,10.43
2018-07-31T04:58:24.901Z,10.53
2018-07-31T05:00:53.826Z,10.85
2018-07-31T05:03:23.006Z,10.53
2018-07-31T05:05:52.039Z,12.30
2018-07-31T05:08:21.312Z,11.43
2018-07-31T05:10:50.272Z,11.25
2018-07-31T05:13:19.327Z,11.35
2018-07-31T05:15:49.107Z,11.90
2018-07-31T05:18:19.053Z,11.57
2018-07-31T05:20:48.451Z,10.20
2018-07-31T05:23:17.675Z,11.33
2018-07-31T05:25:46.405Z,10.10
2018-07-31T05:28:17.393Z,9.95
2018-07-31T05:30:46.595Z,10.50
2018-07-31T05:33:15.843Z,11.63
2018-07-31T05:35:45.507Z,11.18
2018-07-31T05:38:15.202Z,10.90
2018-07-31T05:40:44.329Z,10.90
2018-07-31T05:43:13.616Z,11.50
2018-07-31T05:45:48.863Z,11.43
2018-07-31T05:48:19.807Z,12.23
2018-07-31T05:50:50.417Z,10.32
2018-07-31T05:53:20.215Z,11.43
2018-07-31T05:55:50.000Z,11.25
2018-07-31T05:58:21.901Z,11.40
2018-07-31T06:00:51.944Z,10.78
2018-07-31T06:03:22.083Z,12.15
2018-07-31T06:05:57.761Z,10.70
2018-07-31T06:08:29.964Z,10.72
2018-07-31T06:11:01.523Z,10.40
2018-07-31T06:13:32.303Z,11.55
2018-07-31T06:16:03.729Z,11.95
2018-07-31T06:18:33.653Z,14.60
2018-07-31T06:21:03.055Z,11.50
2018-07-31T06:23:32.059Z,12.13
2018-07-31T06:26:01.402Z,12.47
2018-07-31T06:28:30.217Z,11.40
2018-07-31T06:30:58.909Z,12.10
2018-07-31T06:33:27.742Z,11.18
2018-07-31T06:35:56.813Z,11.93
2018-07-31T06:38:26.031Z,11.78
2018-07-31T06:40:54.991Z,11.12
2018-07-31T06:43:23.852Z,10.88
2018-07-31T06:45:52.689Z,10.80
2018-07-31T06:48:21.790Z,11.12
2018-07-31T06:50:50.142Z,10.85
2018-07-31T06:53:18.917Z,10.93
2018-07-31T06:55:47.619Z,10.72
2018-07-31T06:58:16.579Z,10.13
2018-07-31T07:00:45.223Z,11.05
2018-07-31T07:03:14.001Z,10.95
2018-07-31T07:05:42.670Z,10.40
2018-07-31T07:08:11.547Z,11.25
2018-07-31T07:10:40.549Z,10.15
2018-07-31T07:13:09.398Z,10.55
2018-07-31T07:15:38.607Z,10.68
2018-07-31T07:18:08.364Z,10.88
2018-07-31T07:20:37.150Z,9.73
2018-07-31T07:23:06.013Z,11.03
2018-07-31T07:25:34.853Z,10.68
2018-07-31T07:28:03.590Z,10.50
2018-07-31T07:30:32.491Z,10.75
2018-07-31T07:33:01.152Z,10.58
2018-07-31T07:35:30.000Z,10.25
2018-07-31T07:37:58.744Z,9.83
2018-07-31T07:40:27.431Z,9.68
2018-07-31T07:42:56.202Z,10.05
2018-07-31T07:45:24.902Z,9.90
2018-07-31T07:47:53.571Z,9.65
2018-07-31T07:50:22.224Z,10.32
2018-07-31T07:52:50.971Z,8.95
2018-07-31T07:55:19.632Z,9.38
2018-07-31T07:57:48.279Z,9.25
2018-07-31T08:00:16.946Z,9.68
2018-07-31T08:02:45.648Z,10.78
2018-07-31T08:05:14.528Z,10.10
2018-07-31T08:07:43.310Z,9.10
2018-07-31T08:10:12.139Z,10.15
2018-07-31T08:12:40.933Z,9.53
2018-07-31T08:15:09.616Z,8.58
2018-07-31T08:17:38.480Z,8.40
2018-07-31T08:20:07.393Z,9.10
2018-07-31T08:22:36.286Z,9.40
2018-07-31T08:25:05.015Z,8.85
2018-07-31T08:27:33.926Z,8.90
2018-07-31T08:30:04.131Z,9.25
